sensor_id;sensor_type;location;lat;lon;timestamp;temperature;humidity
46634;DHT22;32362;49.986;8.026;2022-11-13T00:12:52;8.20;99.90
46634;DHT22;32362;49.986;8.026;2022-11-13T00:39:51;8.10;99.90
46634;DHT22;32362;49.986;8.026;2022-11-13T01:06:51;7.80;99.90
46634;DHT22;32362;49.986;8.026;2022-11-13T01:33:50;7.80;99.90
46634;DHT22;32362;49.986;8.026;2022-11-13T02:00:49;7.80;99.90
46634;DHT22;32362;49.986;8.026;2022-11-13T02:27:49;7.70;99.90
46634;DHT22;32362;49.986;8.026;2022-11-13T02:54:48;7.60;99.90
46634;DHT22;32362;49.986;8.026;2022-11-13T03:21:48;7.20;99.90
46634;DHT22;32362;49.986;8.026;2022-11-13T03:48:47;7.10;99.90
46634;DHT22;32362;49.986;8.026;2022-11-13T04:15:46;7.10;99.90
46634;DHT22;32362;49.986;8.026;2022-11-13T04:42:45;6.90;99.90
46634;DHT22;32362;49.986;8.026;2022-11-13T05:09:47;6.80;99.90
46634;DHT22;32362;49.986;8.026;2022-11-13T05:36:46;6.70;99.90
46634;DHT22;32362;49.986;8.026;2022-11-13T06:03:47;6.30;99.90
46634;DHT22;32362;49.986;8.026;2022-11-13T06:30:47;6.10;99.90
46634;DHT22;32362;49.986;8.026;2022-11-13T06:57:46;6.30;99.90
46634;DHT22;32362;49.986;8.026;2022-11-13T07:24:45;6.20;99.90
46634;DHT22;32362;49.986;8.026;2022-11-13T07:51:44;6.60;99.90
46634;DHT22;32362;49.986;8.026;2022-11-13T08:18:43;6.70;99.90
46634;DHT22;32362;49.986;8.026;2022-11-13T08:45:45;6.90;99.90
46634;DHT22;32362;49.986;8.026;2022-11-13T09:12:45;6.90;98.90
46634;DHT22;32362;49.986;8.026;2022-11-13T09:39:43;6.80;99.00
46634;DHT22;32362;49.986;8.026;2022-11-13T10:06:51;7.60;98.30
46634;DHT22;32362;49.986;8.026;2022-11-13T10:33:54;9.00;96.90
46634;DHT22;32362;49.986;8.026;2022-11-13T11:00:55;9.60;94.70
46634;DHT22;32362;49.986;8.026;2022-11-13T11:27:59;11.70;91.20
46634;DHT22;32362;49.986;8.026;2022-11-13T11:55:29;12.70;87.10
46634;DHT22;32362;49.986;8.026;2022-11-13T12:49:41;12.30;87.50
46634;DHT22;32362;49.986;8.026;2022-11-13T13:16:40;15.00;76.30
46634;DHT22;32362;49.986;8.026;2022-11-13T13:44:01;18.30;68.10
46634;DHT22;32362;49.986;8.026;2022-11-13T14:11:20;19.80;58.60
46634;DHT22;32362;49.986;8.026;2022-11-13T14:38:22;19.30;61.20
46634;DHT22;32362;49.986;8.026;2022-11-13T15:05:22;18.70;63.20
46634;DHT22;32362;49.986;8.026;2022-11-13T15:32:21;15.20;76.40
46634;DHT22;32362;49.986;8.026;2022-11-13T15:59:21;13.10;84.60
46634;DHT22;32362;49.986;8.026;2022-11-13T16:26:24;10.30;93.90
46634;DHT22;32362;49.986;8.026;2022-11-13T17:47:23;8.40;93.10
46634;DHT22;32362;49.986;8.026;2022-11-13T18:41:22;7.70;93.10
46634;DHT22;32362;49.986;8.026;2022-11-13T19:35:20;6.80;92.40
46634;DHT22;32362;49.986;8.026;2022-11-13T20:02:20;6.40;93.50
46634;DHT22;32362;49.986;8.026;2022-11-13T20:29:19;5.60;99.20
46634;DHT22;32362;49.986;8.026;2022-11-13T20:56:20;5.80;94.40
46634;DHT22;32362;49.986;8.026;2022-11-13T21:50:19;5.20;95.00
46634;DHT22;32362;49.986;8.026;2022-11-13T22:17:18;5.00;94.70
46634;DHT22;32362;49.986;8.026;2022-11-13T22:44:17;4.60;96.10
46634;DHT22;32362;49.986;8.026;2022-11-13T23:11:17;4.60;95.90
46634;DHT22;32362;49.986;8.026;2022-11-13T23:38:17;4.50;94.90
